Langebaanweg, South Africa
Current Conditions -  °F | °C
As of 9:00 AM on Sunday 23 Nov 2014 (Local Time) from FACT Reporting Station
Few Clouds Few Clouds  
Wind Chill: 64°   Ceiling: Unl
Heat Index: 64°   Visibility: 6mi
Dew Point: 55°   Wind: 10mph
Humidity: 73%   Direction: 290°WNW
Pressure: 30"   Gusts: NA
Location:  32.97°S, 18.15°E
Report Text: FACT 230700Z 29009KT 260V320 9999 FEW010 18/13 Q1016 NOSIG
Loading
Personal Weather Stations






























Interactive Weather Map New forecast layout! Learn more

10-Day Weather Forecast

Advertisements
Track Severe Weather on mobile